sensor_id;sensor_type;location;lat;lon;timestamp;P1;durP1;ratioP1;P2;durP2;ratioP2
75691;SDS011;64307;52.508;6.090;2023-05-18T00:00:44;8.98;;;1.70;;
75691;SDS011;64307;52.508;6.090;2023-05-18T00:05:36;7.53;;;1.25;;
75691;SDS011;64307;52.508;6.090;2023-05-18T00:08:02;8.95;;;1.90;;
75691;SDS011;64307;52.508;6.090;2023-05-18T00:10:27;3.88;;;1.80;;
75691;SDS011;64307;52.508;6.090;2023-05-18T00:12:53;5.28;;;1.65;;
75691;SDS011;64307;52.508;6.090;2023-05-18T00:15:19;9.50;;;1.73;;
75691;SDS011;64307;52.508;6.090;2023-05-18T00:17:44;7.93;;;1.80;;
75691;SDS011;64307;52.508;6.090;2023-05-18T00:20:10;6.15;;;1.65;;
75691;SDS011;64307;52.508;6.090;2023-05-18T00:22:36;9.70;;;2.05;;
75691;SDS011;64307;52.508;6.090;2023-05-18T00:25:03;8.55;;;1.98;;
75691;SDS011;64307;52.508;6.090;2023-05-18T00:27:28;7.78;;;2.13;;
75691;SDS011;64307;52.508;6.090;2023-05-18T00:29:54;10.05;;;2.28;;
75691;SDS011;64307;52.508;6.090;2023-05-18T00:32:19;6.75;;;1.92;;
75691;SDS011;64307;52.508;6.090;2023-05-18T00:34:44;7.97;;;2.13;;
75691;SDS011;64307;52.508;6.090;2023-05-18T00:37:10;5.88;;;1.50;;
75691;SDS011;64307;52.508;6.090;2023-05-18T00:39:35;5.32;;;1.48;;
75691;SDS011;64307;52.508;6.090;2023-05-18T00:42:00;8.10;;;1.90;;
75691;SDS011;64307;52.508;6.090;2023-05-18T00:44:26;6.97;;;1.98;;
75691;SDS011;64307;52.508;6.090;2023-05-18T00:46:51;7.78;;;2.58;;
75691;SDS011;64307;52.508;6.090;2023-05-18T00:49:17;10.57;;;1.92;;
75691;SDS011;64307;52.508;6.090;2023-05-18T00:51:43;7.22;;;1.60;;
75691;SDS011;64307;52.508;6.090;2023-05-18T00:54:09;10.07;;;2.92;;
75691;SDS011;64307;52.508;6.090;2023-05-18T00:56:35;8.60;;;1.80;;
75691;SDS011;64307;52.508;6.090;2023-05-18T00:59:05;7.40;;;1.80;;
75691;SDS011;64307;52.508;6.090;2023-05-18T01:01:33;7.57;;;2.75;;
75691;SDS011;64307;52.508;6.090;2023-05-18T01:03:59;6.28;;;2.17;;
75691;SDS011;64307;52.508;6.090;2023-05-18T01:06:31;6.32;;;1.63;;
75691;SDS011;64307;52.508;6.090;2023-05-18T01:08:59;4.25;;;1.88;;
75691;SDS011;64307;52.508;6.090;2023-05-18T01:14:23;9.85;;;1.92;;
75691;SDS011;64307;52.508;6.090;2023-05-18T01:22:16;7.53;;;1.58;;
75691;SDS011;64307;52.508;6.090;2023-05-18T01:24:48;6.78;;;1.98;;
75691;SDS011;64307;52.508;6.090;2023-05-18T01:27:17;6.38;;;1.65;;
75691;SDS011;64307;52.508;6.090;2023-05-18T01:29:45;10.65;;;1.75;;
75691;SDS011;64307;52.508;6.090;2023-05-18T01:32:18;7.78;;;1.80;;
75691;SDS011;64307;52.508;6.090;2023-05-18T01:34:44;9.07;;;2.08;;
75691;SDS011;64307;52.508;6.090;2023-05-18T01:37:10;5.63;;;1.38;;
75691;SDS011;64307;52.508;6.090;2023-05-18T01:39:35;7.32;;;1.98;;
75691;SDS011;64307;52.508;6.090;2023-05-18T01:42:01;7.05;;;1.98;;
75691;SDS011;64307;52.508;6.090;2023-05-18T01:44:54;7.20;;;2.10;;
75691;SDS011;64307;52.508;6.090;2023-05-18T01:47:20;7.90;;;1.85;;
75691;SDS011;64307;52.508;6.090;2023-05-18T01:52:35;10.18;;;1.98;;
75691;SDS011;64307;52.508;6.090;2023-05-18T01:55:03;7.03;;;1.98;;
75691;SDS011;64307;52.508;6.090;2023-05-18T01:57:30;7.80;;;1.73;;
75691;SDS011;64307;52.508;6.090;2023-05-18T01:59:57;8.85;;;2.60;;
75691;SDS011;64307;52.508;6.090;2023-05-18T02:02:28;9.43;;;2.15;;
75691;SDS011;64307;52.508;6.090;2023-05-18T02:04:53;9.50;;;2.50;;
75691;SDS011;64307;52.508;6.090;2023-05-18T02:07:19;6.32;;;1.98;;
75691;SDS011;64307;52.508;6.090;2023-05-18T02:09:44;7.05;;;1.88;;
75691;SDS011;64307;52.508;6.090;2023-05-18T02:12:10;6.38;;;1.88;;
75691;SDS011;64307;52.508;6.090;2023-05-18T02:14:35;4.85;;;2.58;;
75691;SDS011;64307;52.508;6.090;2023-05-18T02:17:01;9.32;;;2.00;;
75691;SDS011;64307;52.508;6.090;2023-05-18T02:19:26;6.07;;;2.17;;
75691;SDS011;64307;52.508;6.090;2023-05-18T02:21:51;12.35;;;2.63;;
75691;SDS011;64307;52.508;6.090;2023-05-18T02:24:17;7.20;;;1.87;;
75691;SDS011;64307;52.508;6.090;2023-05-18T02:26:42;7.78;;;2.00;;
75691;SDS011;64307;52.508;6.090;2023-05-18T02:29:08;7.43;;;2.50;;
75691;SDS011;64307;52.508;6.090;2023-05-18T02:31:35;5.82;;;1.52;;
75691;SDS011;64307;52.508;6.090;2023-05-18T02:34:01;9.93;;;2.15;;
75691;SDS011;64307;52.508;6.090;2023-05-18T02:36:27;9.70;;;2.47;;
75691;SDS011;64307;52.508;6.090;2023-05-18T02:39:01;8.75;;;2.17;;
75691;SDS011;64307;52.508;6.090;2023-05-18T02:41:31;8.82;;;2.10;;
75691;SDS011;64307;52.508;6.090;2023-05-18T02:43:56;11.57;;;2.53;;
75691;SDS011;64307;52.508;6.090;2023-05-18T02:46:22;10.05;;;2.20;;
75691;SDS011;64307;52.508;6.090;2023-05-18T02:48:47;6.50;;;2.25;;
75691;SDS011;64307;52.508;6.090;2023-05-18T02:51:12;7.80;;;2.10;;
75691;SDS011;64307;52.508;6.090;2023-05-18T02:53:38;11.68;;;2.15;;
75691;SDS011;64307;52.508;6.090;2023-05-18T02:56:03;8.15;;;1.95;;
75691;SDS011;64307;52.508;6.090;2023-05-18T02:58:29;7.78;;;3.05;;
75691;SDS011;64307;52.508;6.090;2023-05-18T03:00:55;7.32;;;2.28;;
75691;SDS011;64307;52.508;6.090;2023-05-18T03:03:20;6.82;;;2.08;;
75691;SDS011;64307;52.508;6.090;2023-05-18T03:05:47;11.73;;;2.30;;
75691;SDS011;64307;52.508;6.090;2023-05-18T03:08:13;6.50;;;2.30;;
75691;SDS011;64307;52.508;6.090;2023-05-18T03:10:38;6.80;;;2.57;;
75691;SDS011;64307;52.508;6.090;2023-05-18T03:13:03;7.70;;;2.27;;
75691;SDS011;64307;52.508;6.090;2023-05-18T03:15:29;9.80;;;2.60;;
75691;SDS011;64307;52.508;6.090;2023-05-18T03:20:23;5.00;;;1.92;;
75691;SDS011;64307;52.508;6.090;2023-05-18T03:22:48;10.32;;;2.50;;
75691;SDS011;64307;52.508;6.090;2023-05-18T03:25:14;7.97;;;2.30;;
75691;SDS011;64307;52.508;6.090;2023-05-18T03:27:39;6.78;;;2.05;;
75691;SDS011;64307;52.508;6.090;2023-05-18T03:30:04;7.13;;;2.80;;
75691;SDS011;64307;52.508;6.090;2023-05-18T03:32:30;6.20;;;2.45;;
75691;SDS011;64307;52.508;6.090;2023-05-18T03:34:57;6.75;;;2.40;;
75691;SDS011;64307;52.508;6.090;2023-05-18T03:37:24;7.93;;;2.25;;
75691;SDS011;64307;52.508;6.090;2023-05-18T03:39:50;7.75;;;2.35;;
75691;SDS011;64307;52.508;6.090;2023-05-18T03:42:15;7.67;;;2.57;;
75691;SDS011;64307;52.508;6.090;2023-05-18T03:44:40;7.68;;;3.22;;
75691;SDS011;64307;52.508;6.090;2023-05-18T03:47:06;6.67;;;2.43;;
75691;SDS011;64307;52.508;6.090;2023-05-18T03:51:58;7.63;;;2.25;;
75691;SDS011;64307;52.508;6.090;2023-05-18T03:54:23;8.07;;;2.38;;
75691;SDS011;64307;52.508;6.090;2023-05-18T03:56:48;11.27;;;2.80;;
75691;SDS011;64307;52.508;6.090;2023-05-18T03:59:14;7.65;;;3.10;;
75691;SDS011;64307;52.508;6.090;2023-05-18T04:01:39;7.90;;;2.42;;
75691;SDS011;64307;52.508;6.090;2023-05-18T04:04:08;5.43;;;2.22;;
75691;SDS011;64307;52.508;6.090;2023-05-18T04:06:45;10.43;;;2.92;;
75691;SDS011;64307;52.508;6.090;2023-05-18T04:09:15;6.97;;;2.47;;
75691;SDS011;64307;52.508;6.090;2023-05-18T04:11:41;7.20;;;2.50;;
75691;SDS011;64307;52.508;6.090;2023-05-18T04:14:06;7.68;;;2.70;;
75691;SDS011;64307;52.508;6.090;2023-05-18T04:16:35;9.90;;;2.58;;
75691;SDS011;64307;52.508;6.090;2023-05-18T04:19:00;7.72;;;2.03;;
75691;SDS011;64307;52.508;6.090;2023-05-18T04:21:27;5.63;;;2.42;;
75691;SDS011;64307;52.508;6.090;2023-05-18T04:23:59;9.15;;;2.80;;
75691;SDS011;64307;52.508;6.090;2023-05-18T04:26:28;7.10;;;2.72;;
75691;SDS011;64307;52.508;6.090;2023-05-18T04:28:54;8.10;;;2.83;;
75691;SDS011;64307;52.508;6.090;2023-05-18T04:31:24;10.88;;;2.60;;
75691;SDS011;64307;52.508;6.090;2023-05-18T04:33:50;10.73;;;3.03;;
75691;SDS011;64307;52.508;6.090;2023-05-18T04:36:16;10.50;;;2.58;;
75691;SDS011;64307;52.508;6.090;2023-05-18T04:38:43;9.25;;;2.40;;
75691;SDS011;64307;52.508;6.090;2023-05-18T04:41:09;10.18;;;3.05;;
75691;SDS011;64307;52.508;6.090;2023-05-18T04:43:34;11.10;;;2.65;;
75691;SDS011;64307;52.508;6.090;2023-05-18T04:46:00;10.73;;;2.25;;
75691;SDS011;64307;52.508;6.090;2023-05-18T04:48:26;6.75;;;2.33;;
75691;SDS011;64307;52.508;6.090;2023-05-18T04:50:53;7.63;;;3.00;;
75691;SDS011;64307;52.508;6.090;2023-05-18T04:53:21;7.47;;;2.22;;
75691;SDS011;64307;52.508;6.090;2023-05-18T04:55:51;11.18;;;2.58;;
75691;SDS011;64307;52.508;6.090;2023-05-18T04:58:17;7.28;;;2.05;;
75691;SDS011;64307;52.508;6.090;2023-05-18T05:00:42;8.20;;;1.80;;
75691;SDS011;64307;52.508;6.090;2023-05-18T05:03:08;6.05;;;2.45;;
75691;SDS011;64307;52.508;6.090;2023-05-18T05:05:33;8.70;;;2.15;;
75691;SDS011;64307;52.508;6.090;2023-05-18T05:07:59;11.77;;;2.63;;
75691;SDS011;64307;52.508;6.090;2023-05-18T05:10:25;8.23;;;2.13;;
75691;SDS011;64307;52.508;6.090;2023-05-18T05:12:52;6.40;;;1.73;;
75691;SDS011;64307;52.508;6.090;2023-05-18T05:15:17;9.98;;;2.25;;
75691;SDS011;64307;52.508;6.090;2023-05-18T05:17:45;6.55;;;1.90;;
75691;SDS011;64307;52.508;6.090;2023-05-18T05:20:11;11.07;;;2.38;;
75691;SDS011;64307;52.508;6.090;2023-05-18T05:22:36;8.93;;;2.27;;
75691;SDS011;64307;52.508;6.090;2023-05-18T05:25:01;9.95;;;2.28;;
75691;SDS011;64307;52.508;6.090;2023-05-18T05:27:27;9.73;;;2.10;;
75691;SDS011;64307;52.508;6.090;2023-05-18T05:29:52;7.72;;;1.83;;
75691;SDS011;64307;52.508;6.090;2023-05-18T05:32:17;7.17;;;2.50;;
75691;SDS011;64307;52.508;6.090;2023-05-18T05:34:42;8.15;;;1.95;;
75691;SDS011;64307;52.508;6.090;2023-05-18T05:37:10;8.98;;;2.03;;
75691;SDS011;64307;52.508;6.090;2023-05-18T05:39:36;8.50;;;1.92;;
75691;SDS011;64307;52.508;6.090;2023-05-18T05:42:01;8.90;;;2.45;;
75691;SDS011;64307;52.508;6.090;2023-05-18T05:44:27;10.50;;;2.28;;
75691;SDS011;64307;52.508;6.090;2023-05-18T05:46:52;9.57;;;1.90;;
75691;SDS011;64307;52.508;6.090;2023-05-18T05:49:17;6.65;;;2.13;;
75691;SDS011;64307;52.508;6.090;2023-05-18T05:51:43;10.83;;;2.03;;
75691;SDS011;64307;52.508;6.090;2023-05-18T05:54:08;10.87;;;2.10;;
75691;SDS011;64307;52.508;6.090;2023-05-18T05:56:33;5.93;;;1.98;;
75691;SDS011;64307;52.508;6.090;2023-05-18T05:58:58;7.73;;;2.43;;
75691;SDS011;64307;52.508;6.090;2023-05-18T06:01:24;7.10;;;1.77;;
75691;SDS011;64307;52.508;6.090;2023-05-18T06:03:49;11.20;;;2.50;;
75691;SDS011;64307;52.508;6.090;2023-05-18T06:06:15;7.38;;;1.70;;
75691;SDS011;64307;52.508;6.090;2023-05-18T06:08:41;6.65;;;2.20;;
75691;SDS011;64307;52.508;6.090;2023-05-18T06:11:07;6.32;;;1.55;;
75691;SDS011;64307;52.508;6.090;2023-05-18T06:13:32;7.85;;;1.98;;
75691;SDS011;64307;52.508;6.090;2023-05-18T06:15:57;7.80;;;2.20;;
75691;SDS011;64307;52.508;6.090;2023-05-18T06:18:23;6.30;;;1.90;;
75691;SDS011;64307;52.508;6.090;2023-05-18T06:20:48;8.63;;;1.63;;
75691;SDS011;64307;52.508;6.090;2023-05-18T06:23:13;6.20;;;2.22;;
75691;SDS011;64307;52.508;6.090;2023-05-18T06:25:39;7.65;;;2.20;;
75691;SDS011;64307;52.508;6.090;2023-05-18T06:28:06;6.57;;;1.98;;
75691;SDS011;64307;52.508;6.090;2023-05-18T06:30:31;11.57;;;2.20;;
75691;SDS011;64307;52.508;6.090;2023-05-18T06:32:56;8.00;;;1.73;;
75691;SDS011;64307;52.508;6.090;2023-05-18T06:35:22;5.72;;;1.42;;
75691;SDS011;64307;52.508;6.090;2023-05-18T06:37:48;10.30;;;1.88;;
75691;SDS011;64307;52.508;6.090;2023-05-18T06:40:13;9.18;;;2.00;;
75691;SDS011;64307;52.508;6.090;2023-05-18T06:42:38;7.30;;;1.57;;
75691;SDS011;64307;52.508;6.090;2023-05-18T06:45:04;6.57;;;1.47;;
75691;SDS011;64307;52.508;6.090;2023-05-18T06:47:30;8.38;;;1.67;;
75691;SDS011;64307;52.508;6.090;2023-05-18T06:49:56;6.68;;;1.40;;
75691;SDS011;64307;52.508;6.090;2023-05-18T06:52:22;5.75;;;1.58;;
75691;SDS011;64307;52.508;6.090;2023-05-18T06:54:47;6.82;;;1.90;;
75691;SDS011;64307;52.508;6.090;2023-05-18T06:57:13;5.25;;;1.95;;
75691;SDS011;64307;52.508;6.090;2023-05-18T06:59:39;7.43;;;1.50;;
75691;SDS011;64307;52.508;6.090;2023-05-18T07:02:04;7.70;;;1.52;;
75691;SDS011;64307;52.508;6.090;2023-05-18T07:04:30;5.72;;;1.25;;
75691;SDS011;64307;52.508;6.090;2023-05-18T07:06:55;6.40;;;1.50;;
75691;SDS011;64307;52.508;6.090;2023-05-18T07:09:21;10.57;;;1.42;;
75691;SDS011;64307;52.508;6.090;2023-05-18T07:11:47;5.80;;;1.50;;
75691;SDS011;64307;52.508;6.090;2023-05-18T07:14:12;5.40;;;1.02;;
75691;SDS011;64307;52.508;6.090;2023-05-18T07:16:38;11.15;;;1.52;;
75691;SDS011;64307;52.508;6.090;2023-05-18T07:19:03;9.85;;;1.77;;
75691;SDS011;64307;52.508;6.090;2023-05-18T07:21:29;6.95;;;1.42;;
75691;SDS011;64307;52.508;6.090;2023-05-18T07:23:55;7.35;;;1.40;;
75691;SDS011;64307;52.508;6.090;2023-05-18T07:26:20;7.23;;;1.50;;
75691;SDS011;64307;52.508;6.090;2023-05-18T07:28:46;5.90;;;1.45;;
75691;SDS011;64307;52.508;6.090;2023-05-18T07:31:12;5.38;;;1.13;;
75691;SDS011;64307;52.508;6.090;2023-05-18T07:33:40;7.43;;;1.10;;
75691;SDS011;64307;52.508;6.090;2023-05-18T07:36:05;8.20;;;1.38;;
75691;SDS011;64307;52.508;6.090;2023-05-18T07:38:31;5.13;;;0.75;;
75691;SDS011;64307;52.508;6.090;2023-05-18T07:40:56;9.18;;;1.38;;
75691;SDS011;64307;52.508;6.090;2023-05-18T07:43:23;7.15;;;1.42;;
75691;SDS011;64307;52.508;6.090;2023-05-18T07:45:49;6.78;;;1.30;;
75691;SDS011;64307;52.508;6.090;2023-05-18T07:48:14;9.55;;;1.60;;
75691;SDS011;64307;52.508;6.090;2023-05-18T07:50:40;7.85;;;1.42;;
75691;SDS011;64307;52.508;6.090;2023-05-18T07:53:05;10.10;;;1.70;;
75691;SDS011;64307;52.508;6.090;2023-05-18T07:55:30;6.45;;;1.08;;
75691;SDS011;64307;52.508;6.090;2023-05-18T07:57:56;7.18;;;1.23;;
75691;SDS011;64307;52.508;6.090;2023-05-18T08:00:21;7.47;;;1.05;;
75691;SDS011;64307;52.508;6.090;2023-05-18T08:02:47;5.82;;;1.13;;
75691;SDS011;64307;52.508;6.090;2023-05-18T08:05:12;5.20;;;1.63;;
75691;SDS011;64307;52.508;6.090;2023-05-18T08:07:38;6.88;;;1.48;;
75691;SDS011;64307;52.508;6.090;2023-05-18T08:10:03;7.25;;;1.20;;
75691;SDS011;64307;52.508;6.090;2023-05-18T08:12:29;3.97;;;0.95;;
75691;SDS011;64307;52.508;6.090;2023-05-18T08:14:55;6.60;;;1.17;;
75691;SDS011;64307;52.508;6.090;2023-05-18T08:17:20;6.45;;;1.27;;
75691;SDS011;64307;52.508;6.090;2023-05-18T08:19:46;7.20;;;1.20;;
75691;SDS011;64307;52.508;6.090;2023-05-18T08:22:12;5.85;;;1.00;;
75691;SDS011;64307;52.508;6.090;2023-05-18T08:24:38;5.57;;;1.40;;
75691;SDS011;64307;52.508;6.090;2023-05-18T08:27:03;6.15;;;1.00;;
75691;SDS011;64307;52.508;6.090;2023-05-18T08:29:31;5.03;;;1.00;;
75691;SDS011;64307;52.508;6.090;2023-05-18T08:31:56;5.13;;;1.40;;
75691;SDS011;64307;52.508;6.090;2023-05-18T08:34:21;5.40;;;1.23;;
75691;SDS011;64307;52.508;6.090;2023-05-18T08:36:47;8.30;;;1.60;;
75691;SDS011;64307;52.508;6.090;2023-05-18T08:39:12;7.30;;;1.77;;
75691;SDS011;64307;52.508;6.090;2023-05-18T08:44:20;6.38;;;1.55;;
75691;SDS011;64307;52.508;6.090;2023-05-18T08:46:48;8.27;;;1.85;;
75691;SDS011;64307;52.508;6.090;2023-05-18T08:49:18;7.63;;;1.50;;
75691;SDS011;64307;52.508;6.090;2023-05-18T08:51:46;8.30;;;1.70;;
75691;SDS011;64307;52.508;6.090;2023-05-18T08:54:20;7.45;;;1.30;;
75691;SDS011;64307;52.508;6.090;2023-05-18T08:56:46;4.78;;;0.95;;
75691;SDS011;64307;52.508;6.090;2023-05-18T08:59:13;5.70;;;1.33;;
75691;SDS011;64307;52.508;6.090;2023-05-18T09:01:42;6.53;;;1.42;;
75691;SDS011;64307;52.508;6.090;2023-05-18T09:04:07;7.50;;;1.20;;
75691;SDS011;64307;52.508;6.090;2023-05-18T09:06:34;6.40;;;1.23;;
75691;SDS011;64307;52.508;6.090;2023-05-18T09:09:00;8.02;;;1.10;;
75691;SDS011;64307;52.508;6.090;2023-05-18T09:11:30;6.07;;;1.08;;
75691;SDS011;64307;52.508;6.090;2023-05-18T09:13:57;5.32;;;1.30;;
75691;SDS011;64307;52.508;6.090;2023-05-18T09:16:23;7.60;;;1.48;;
75691;SDS011;64307;52.508;6.090;2023-05-18T09:18:49;5.05;;;1.20;;
75691;SDS011;64307;52.508;6.090;2023-05-18T09:21:14;4.28;;;1.55;;
75691;SDS011;64307;52.508;6.090;2023-05-18T09:23:40;6.38;;;1.40;;
75691;SDS011;64307;52.508;6.090;2023-05-18T09:26:06;6.43;;;1.67;;
75691;SDS011;64307;52.508;6.090;2023-05-18T09:31:17;6.32;;;1.75;;
75691;SDS011;64307;52.508;6.090;2023-05-18T09:33:44;5.75;;;1.45;;
75691;SDS011;64307;52.508;6.090;2023-05-18T09:36:10;7.32;;;1.30;;
75691;SDS011;64307;52.508;6.090;2023-05-18T09:38:37;3.83;;;1.50;;
75691;SDS011;64307;52.508;6.090;2023-05-18T09:41:08;5.93;;;1.70;;
75691;SDS011;64307;52.508;6.090;2023-05-18T09:43:34;6.50;;;1.85;;
75691;SDS011;64307;52.508;6.090;2023-05-18T09:46:00;8.40;;;1.65;;
75691;SDS011;64307;52.508;6.090;2023-05-18T09:48:30;3.70;;;1.20;;
75691;SDS011;64307;52.508;6.090;2023-05-18T09:50:57;4.70;;;1.60;;
75691;SDS011;64307;52.508;6.090;2023-05-18T09:53:23;7.35;;;1.95;;
75691;SDS011;64307;52.508;6.090;2023-05-18T09:55:49;7.50;;;1.98;;
75691;SDS011;64307;52.508;6.090;2023-05-18T09:58:14;8.50;;;2.13;;
75691;SDS011;64307;52.508;6.090;2023-05-18T10:00:41;7.28;;;1.60;;
75691;SDS011;64307;52.508;6.090;2023-05-18T10:03:15;8.27;;;1.70;;
75691;SDS011;64307;52.508;6.090;2023-05-18T10:05:42;7.18;;;1.80;;
75691;SDS011;64307;52.508;6.090;2023-05-18T10:08:07;5.72;;;1.65;;
75691;SDS011;64307;52.508;6.090;2023-05-18T10:10:36;4.95;;;1.52;;
75691;SDS011;64307;52.508;6.090;2023-05-18T10:13:03;4.50;;;1.75;;
75691;SDS011;64307;52.508;6.090;2023-05-18T10:15:29;5.55;;;1.65;;
75691;SDS011;64307;52.508;6.090;2023-05-18T10:17:55;7.53;;;1.83;;
75691;SDS011;64307;52.508;6.090;2023-05-18T10:20:21;7.85;;;1.70;;
75691;SDS011;64307;52.508;6.090;2023-05-18T10:22:48;6.05;;;2.08;;
75691;SDS011;64307;52.508;6.090;2023-05-18T10:25:16;7.10;;;2.42;;
75691;SDS011;64307;52.508;6.090;2023-05-18T10:27:44;6.07;;;1.60;;
75691;SDS011;64307;52.508;6.090;2023-05-18T10:30:11;7.35;;;1.90;;
75691;SDS011;64307;52.508;6.090;2023-05-18T10:32:38;4.93;;;1.73;;
75691;SDS011;64307;52.508;6.090;2023-05-18T10:35:04;11.15;;;1.70;;
75691;SDS011;64307;52.508;6.090;2023-05-18T10:37:32;6.57;;;2.03;;
75691;SDS011;64307;52.508;6.090;2023-05-18T10:39:59;6.88;;;2.05;;
75691;SDS011;64307;52.508;6.090;2023-05-18T10:42:25;5.95;;;1.58;;
75691;SDS011;64307;52.508;6.090;2023-05-18T10:44:53;7.60;;;1.92;;
75691;SDS011;64307;52.508;6.090;2023-05-18T10:47:20;7.28;;;1.90;;
75691;SDS011;64307;52.508;6.090;2023-05-18T10:49:49;4.72;;;1.80;;
75691;SDS011;64307;52.508;6.090;2023-05-18T10:52:15;6.38;;;1.80;;
75691;SDS011;64307;52.508;6.090;2023-05-18T10:54:41;5.45;;;1.65;;
75691;SDS011;64307;52.508;6.090;2023-05-18T10:57:09;6.47;;;2.28;;
75691;SDS011;64307;52.508;6.090;2023-05-18T10:59:38;5.68;;;1.63;;
75691;SDS011;64307;52.508;6.090;2023-05-18T11:02:06;11.40;;;2.28;;
75691;SDS011;64307;52.508;6.090;2023-05-18T11:04:34;7.07;;;1.80;;
75691;SDS011;64307;52.508;6.090;2023-05-18T11:06:59;5.65;;;1.90;;
75691;SDS011;64307;52.508;6.090;2023-05-18T11:09:27;8.40;;;1.77;;
75691;SDS011;64307;52.508;6.090;2023-05-18T11:11:55;6.68;;;1.75;;
75691;SDS011;64307;52.508;6.090;2023-05-18T11:14:25;6.07;;;2.00;;
75691;SDS011;64307;52.508;6.090;2023-05-18T11:16:52;5.45;;;1.70;;
75691;SDS011;64307;52.508;6.090;2023-05-18T11:19:18;7.20;;;1.83;;
75691;SDS011;64307;52.508;6.090;2023-05-18T11:21:50;6.78;;;2.15;;
75691;SDS011;64307;52.508;6.090;2023-05-18T11:24:17;6.38;;;2.15;;
75691;SDS011;64307;52.508;6.090;2023-05-18T11:26:44;8.07;;;2.15;;
75691;SDS011;64307;52.508;6.090;2023-05-18T11:29:18;8.27;;;1.80;;
75691;SDS011;64307;52.508;6.090;2023-05-18T11:31:52;5.75;;;1.55;;
75691;SDS011;64307;52.508;6.090;2023-05-18T11:37:08;6.65;;;1.90;;
75691;SDS011;64307;52.508;6.090;2023-05-18T11:39:35;6.03;;;1.75;;
75691;SDS011;64307;52.508;6.090;2023-05-18T11:42:08;8.93;;;2.22;;
75691;SDS011;64307;52.508;6.090;2023-05-18T11:44:35;7.82;;;2.05;;
75691;SDS011;64307;52.508;6.090;2023-05-18T11:47:01;6.05;;;2.17;;
75691;SDS011;64307;52.508;6.090;2023-05-18T11:49:44;6.70;;;2.13;;
75691;SDS011;64307;52.508;6.090;2023-05-18T11:54:40;8.03;;;1.90;;
75691;SDS011;64307;52.508;6.090;2023-05-18T11:57:11;8.10;;;2.50;;
75691;SDS011;64307;52.508;6.090;2023-05-18T11:59:40;9.55;;;1.85;;
75691;SDS011;64307;52.508;6.090;2023-05-18T12:02:07;5.78;;;1.35;;
75691;SDS011;64307;52.508;6.090;2023-05-18T12:04:41;7.55;;;2.25;;
75691;SDS011;64307;52.508;6.090;2023-05-18T12:07:07;6.78;;;1.60;;
75691;SDS011;64307;52.508;6.090;2023-05-18T12:09:33;7.43;;;1.73;;
75691;SDS011;64307;52.508;6.090;2023-05-18T12:11:59;6.20;;;1.60;;
75691;SDS011;64307;52.508;6.090;2023-05-18T12:14:25;8.35;;;2.05;;
75691;SDS011;64307;52.508;6.090;2023-05-18T12:16:51;5.55;;;1.80;;
75691;SDS011;64307;52.508;6.090;2023-05-18T12:19:17;6.07;;;1.85;;
75691;SDS011;64307;52.508;6.090;2023-05-18T12:21:43;9.65;;;1.63;;
75691;SDS011;64307;52.508;6.090;2023-05-18T12:24:09;6.18;;;2.38;;
75691;SDS011;64307;52.508;6.090;2023-05-18T12:26:35;6.50;;;2.22;;
75691;SDS011;64307;52.508;6.090;2023-05-18T12:29:02;6.13;;;1.85;;
75691;SDS011;64307;52.508;6.090;2023-05-18T12:31:27;6.75;;;1.85;;
75691;SDS011;64307;52.508;6.090;2023-05-18T12:33:53;6.38;;;2.20;;
75691;SDS011;64307;52.508;6.090;2023-05-18T12:36:19;7.28;;;2.03;;
75691;SDS011;64307;52.508;6.090;2023-05-18T12:38:50;4.68;;;2.05;;
75691;SDS011;64307;52.508;6.090;2023-05-18T12:41:25;7.63;;;1.98;;
75691;SDS011;64307;52.508;6.090;2023-05-18T12:43:51;6.97;;;1.95;;
75691;SDS011;64307;52.508;6.090;2023-05-18T12:46:21;7.10;;;2.05;;
75691;SDS011;64307;52.508;6.090;2023-05-18T12:48:56;5.72;;;2.47;;
75691;SDS011;64307;52.508;6.090;2023-05-18T12:51:25;5.60;;;1.65;;
75691;SDS011;64307;52.508;6.090;2023-05-18T12:53:56;6.82;;;1.95;;
75691;SDS011;64307;52.508;6.090;2023-05-18T12:56:22;8.10;;;1.85;;
75691;SDS011;64307;52.508;6.090;2023-05-18T12:58:58;5.97;;;2.05;;
75691;SDS011;64307;52.508;6.090;2023-05-18T13:01:28;5.30;;;1.70;;
75691;SDS011;64307;52.508;6.090;2023-05-18T13:03:55;7.10;;;1.60;;
75691;SDS011;64307;52.508;6.090;2023-05-18T13:06:22;7.22;;;1.52;;
75691;SDS011;64307;52.508;6.090;2023-05-18T13:08:47;5.85;;;1.55;;
75691;SDS011;64307;52.508;6.090;2023-05-18T13:11:13;8.93;;;2.28;;
75691;SDS011;64307;52.508;6.090;2023-05-18T13:13:59;6.75;;;2.55;;
75691;SDS011;64307;52.508;6.090;2023-05-18T13:16:25;6.40;;;1.88;;
75691;SDS011;64307;52.508;6.090;2023-05-18T13:18:57;7.28;;;1.88;;
75691;SDS011;64307;52.508;6.090;2023-05-18T13:21:24;7.07;;;1.77;;
75691;SDS011;64307;52.508;6.090;2023-05-18T13:23:50;5.47;;;1.58;;
75691;SDS011;64307;52.508;6.090;2023-05-18T13:26:16;6.05;;;2.05;;
75691;SDS011;64307;52.508;6.090;2023-05-18T13:28:43;7.72;;;2.08;;
75691;SDS011;64307;52.508;6.090;2023-05-18T13:31:08;6.78;;;1.85;;
75691;SDS011;64307;52.508;6.090;2023-05-18T13:33:34;6.60;;;1.98;;
75691;SDS011;64307;52.508;6.090;2023-05-18T13:36:00;7.00;;;1.55;;
75691;SDS011;64307;52.508;6.090;2023-05-18T13:38:25;5.97;;;1.80;;
75691;SDS011;64307;52.508;6.090;2023-05-18T13:40:51;9.10;;;1.63;;
75691;SDS011;64307;52.508;6.090;2023-05-18T13:43:17;8.70;;;2.03;;
75691;SDS011;64307;52.508;6.090;2023-05-18T13:45:42;11.60;;;2.30;;
75691;SDS011;64307;52.508;6.090;2023-05-18T13:48:07;6.90;;;2.47;;
75691;SDS011;64307;52.508;6.090;2023-05-18T13:50:33;7.80;;;2.33;;
75691;SDS011;64307;52.508;6.090;2023-05-18T13:52:59;8.48;;;1.85;;
75691;SDS011;64307;52.508;6.090;2023-05-18T13:55:25;9.82;;;1.75;;
75691;SDS011;64307;52.508;6.090;2023-05-18T13:57:50;7.07;;;1.50;;
75691;SDS011;64307;52.508;6.090;2023-05-18T14:00:16;7.13;;;2.47;;
75691;SDS011;64307;52.508;6.090;2023-05-18T14:02:42;7.78;;;1.95;;
75691;SDS011;64307;52.508;6.090;2023-05-18T14:05:09;6.25;;;1.90;;
75691;SDS011;64307;52.508;6.090;2023-05-18T14:07:35;5.60;;;1.38;;
75691;SDS011;64307;52.508;6.090;2023-05-18T14:10:02;7.70;;;2.00;;
75691;SDS011;64307;52.508;6.090;2023-05-18T14:12:28;7.60;;;1.70;;
75691;SDS011;64307;52.508;6.090;2023-05-18T14:14:53;7.77;;;1.67;;
75691;SDS011;64307;52.508;6.090;2023-05-18T14:17:18;7.78;;;1.80;;
75691;SDS011;64307;52.508;6.090;2023-05-18T14:19:44;6.57;;;1.70;;
75691;SDS011;64307;52.508;6.090;2023-05-18T14:22:09;8.43;;;2.20;;
75691;SDS011;64307;52.508;6.090;2023-05-18T14:24:34;8.20;;;2.10;;
75691;SDS011;64307;52.508;6.090;2023-05-18T14:26:59;9.73;;;1.77;;
75691;SDS011;64307;52.508;6.090;2023-05-18T14:29:25;6.82;;;2.00;;
75691;SDS011;64307;52.508;6.090;2023-05-18T14:31:50;6.32;;;2.15;;
75691;SDS011;64307;52.508;6.090;2023-05-18T14:34:15;8.77;;;2.13;;
75691;SDS011;64307;52.508;6.090;2023-05-18T14:36:40;6.25;;;1.65;;
75691;SDS011;64307;52.508;6.090;2023-05-18T14:39:06;5.93;;;1.92;;
75691;SDS011;64307;52.508;6.090;2023-05-18T14:41:31;6.30;;;1.90;;
75691;SDS011;64307;52.508;6.090;2023-05-18T14:43:56;7.80;;;1.70;;
75691;SDS011;64307;52.508;6.090;2023-05-18T14:46:22;6.78;;;1.55;;
75691;SDS011;64307;52.508;6.090;2023-05-18T14:48:47;5.43;;;1.92;;
75691;SDS011;64307;52.508;6.090;2023-05-18T14:51:12;5.27;;;2.00;;
75691;SDS011;64307;52.508;6.090;2023-05-18T14:53:40;4.80;;;1.70;;
75691;SDS011;64307;52.508;6.090;2023-05-18T14:56:05;8.10;;;1.98;;
75691;SDS011;64307;52.508;6.090;2023-05-18T14:58:33;6.10;;;1.75;;
75691;SDS011;64307;52.508;6.090;2023-05-18T15:00:59;6.47;;;1.92;;
75691;SDS011;64307;52.508;6.090;2023-05-18T15:03:24;6.68;;;2.10;;
75691;SDS011;64307;52.508;6.090;2023-05-18T15:05:50;7.07;;;2.05;;
75691;SDS011;64307;52.508;6.090;2023-05-18T15:08:16;5.78;;;1.92;;
75691;SDS011;64307;52.508;6.090;2023-05-18T15:10:42;7.90;;;1.95;;